QFV1 YSSY-YBBN
Flight info
| Callsign | QFV1 |
|---|---|
| Flight time | 1h 46m |
| Altitude | 39000 |
| Route | KEVIN7/16L OLSEM Y193 BANDA H252 BN |
| Aircraft | A20N/M-SDE2E3FGHIRWXY/LB1 |
Departure
| Time | 2026-04-24 07:06 |
|---|---|
| Airport | Sydney Kingsford Smith International Airport (YSSY) |
Arrival
| Time | 2026-04-24 08:52 |
|---|---|
| Airport | Brisbane International Airport (YBBN) |
| Time | Latitude | Longitude | Altitude | Speed | Heading |
|---|---|---|---|---|---|
| 2026-04-24 06:48 | -33.94357 | 151.18016 | 28 ft | 0 kts | 169° |
| 2026-04-24 06:51 | -33.94345 | 151.18013 | 28 ft | 3 kts | 169° |
| 2026-04-24 06:51 | -33.94327 | 151.18009 | 28 ft | 3 kts | 169° |
| 2026-04-24 06:52 | -33.94310 | 151.18005 | 28 ft | 3 kts | 169° |
| 2026-04-24 06:52 | -33.94292 | 151.18001 | 28 ft | 3 kts | 169° |
| 2026-04-24 06:52 | -33.94275 | 151.18000 | 28 ft | 2 kts | 217° |
| 2026-04-24 06:52 | -33.94268 | 151.18011 | 28 ft | 0 kts | 261° |
| 2026-04-24 06:59 | -33.94271 | 151.17992 | 28 ft | 5 kts | 260° |
| 2026-04-24 06:59 | -33.94276 | 151.17928 | 28 ft | 10 kts | 260° |
| 2026-04-24 07:00 | -33.94306 | 151.17891 | 28 ft | 5 kts | 196° |
| 2026-04-24 07:00 | -33.94347 | 151.17895 | 28 ft | 9 kts | 170° |
| 2026-04-24 07:00 | -33.94433 | 151.17913 | 27 ft | 16 kts | 182° |
| 2026-04-24 07:00 | -33.94560 | 151.17893 | 26 ft | 22 kts | 168° |
| 2026-04-24 07:01 | -33.94720 | 151.17934 | 28 ft | 27 kts | 168° |
| 2026-04-24 07:01 | -33.94926 | 151.17988 | 25 ft | 30 kts | 167° |
| 2026-04-24 07:01 | -33.95093 | 151.18056 | 29 ft | 20 kts | 121° |
| 2026-04-24 07:01 | -33.95102 | 151.18113 | 29 ft | 0 kts | 92° |
| 2026-04-24 07:02 | -33.95102 | 151.18120 | 28 ft | 2 kts | 92° |
| 2026-04-24 07:02 | -33.95103 | 151.18141 | 28 ft | 3 kts | 92° |
| 2026-04-24 07:02 | -33.95104 | 151.18173 | 28 ft | 4 kts | 92° |
| 2026-04-24 07:02 | -33.95104 | 151.18191 | 28 ft | 0 kts | 85° |
| 2026-04-24 07:03 | -33.95101 | 151.18202 | 28 ft | 4 kts | 73° |
| 2026-04-24 07:03 | -33.95080 | 151.18262 | 28 ft | 12 kts | 69° |
| 2026-04-24 07:03 | -33.95053 | 151.18396 | 29 ft | 19 kts | 78° |
| 2026-04-24 07:03 | -33.95047 | 151.18432 | 29 ft | 0 kts | 77° |
| 2026-04-24 07:04 | -33.95043 | 151.18452 | 29 ft | 7 kts | 78° |
| 2026-04-24 07:04 | -33.95025 | 151.18553 | 30 ft | 17 kts | 74° |
| 2026-04-24 07:04 | -33.94999 | 151.18691 | 28 ft | 11 kts | 78° |
| 2026-04-24 07:04 | -33.94994 | 151.18717 | 27 ft | 0 kts | 78° |
| 2026-04-24 07:05 | -33.94994 | 151.18718 | 27 ft | 1 kts | 78° |
| 2026-04-24 07:05 | -33.94985 | 151.18776 | 27 ft | 12 kts | 83° |
| 2026-04-24 07:05 | -33.95021 | 151.18847 | 26 ft | 12 kts | 143° |
| 2026-04-24 07:05 | -33.95094 | 151.18867 | 26 ft | 20 kts | 168° |
| 2026-04-24 07:06 | -33.95481 | 151.18968 | 27 ft | 90 kts | 167° |
| 2026-04-24 07:06 | -33.96294 | 151.19180 | 35 ft | 146 kts | 167° |
| 2026-04-24 07:06 | -33.97287 | 151.19445 | 660 ft | 140 kts | 164° |
| 2026-04-24 07:06 | -33.98143 | 151.19938 | 1249 ft | 147 kts | 128° |
| 2026-04-24 07:07 | -33.98802 | 151.21038 | 1532 ft | 172 kts | 123° |
| 2026-04-24 07:07 | -33.99516 | 151.22284 | 1707 ft | 189 kts | 123° |
| 2026-04-24 07:07 | -34.01318 | 151.25008 | 2123 ft | 229 kts | 135° |
| 2026-04-24 07:08 | -34.02569 | 151.26307 | 2495 ft | 244 kts | 139° |
| 2026-04-24 07:08 | -34.03906 | 151.27614 | 3050 ft | 250 kts | 140° |
| 2026-04-24 07:08 | -34.05271 | 151.28940 | 3646 ft | 254 kts | 139° |
| 2026-04-24 07:08 | -34.06480 | 151.30495 | 4189 ft | 257 kts | 123° |
| 2026-04-24 07:09 | -34.07199 | 151.32454 | 4780 ft | 258 kts | 101° |
| 2026-04-24 07:09 | -34.07148 | 151.34600 | 5370 ft | 259 kts | 73° |
| 2026-04-24 07:09 | -34.06238 | 151.36444 | 6038 ft | 259 kts | 45° |
| 2026-04-24 07:09 | -34.04737 | 151.37661 | 6657 ft | 264 kts | 28° |
| 2026-04-24 07:10 | -34.03057 | 151.38509 | 7273 ft | 267 kts | 21° |
| 2026-04-24 07:10 | -34.01271 | 151.39180 | 7845 ft | 271 kts | 18° |
| 2026-04-24 07:10 | -33.99432 | 151.39783 | 8427 ft | 276 kts | 17° |
| 2026-04-24 07:10 | -33.97564 | 151.40387 | 9015 ft | 280 kts | 18° |
| 2026-04-24 07:11 | -33.95672 | 151.41025 | 9593 ft | 284 kts | 18° |
| 2026-04-24 07:11 | -33.93766 | 151.41700 | 10186 ft | 289 kts | 19° |
| 2026-04-24 07:11 | -33.91797 | 151.42428 | 10455 ft | 304 kts | 20° |
| 2026-04-24 07:11 | -33.89728 | 151.43213 | 10679 ft | 319 kts | 20° |
| 2026-04-24 07:12 | -33.87591 | 151.44033 | 11081 ft | 326 kts | 20° |
| 2026-04-24 07:12 | -33.85416 | 151.44867 | 11570 ft | 330 kts | 20° |
| 2026-04-24 07:12 | -33.83251 | 151.45696 | 12086 ft | 333 kts | 20° |
| 2026-04-24 07:12 | -33.81037 | 151.46542 | 12592 ft | 336 kts | 19° |
| 2026-04-24 07:13 | -33.78800 | 151.47396 | 13085 ft | 339 kts | 20° |
| 2026-04-24 07:13 | -33.76544 | 151.48255 | 13573 ft | 342 kts | 19° |
| 2026-04-24 07:13 | -33.74266 | 151.49122 | 14057 ft | 345 kts | 19° |
| 2026-04-24 07:13 | -33.71973 | 151.49994 | 14529 ft | 347 kts | 19° |
| 2026-04-24 07:14 | -33.69663 | 151.50872 | 14986 ft | 350 kts | 20° |
| 2026-04-24 07:14 | -33.67332 | 151.51757 | 15454 ft | 352 kts | 20° |
| 2026-04-24 07:14 | -33.64988 | 151.52648 | 15930 ft | 354 kts | 20° |
| 2026-04-24 07:14 | -33.62635 | 151.53541 | 16407 ft | 357 kts | 20° |
| 2026-04-24 07:15 | -33.60288 | 151.54431 | 16868 ft | 359 kts | 20° |
| 2026-04-24 07:15 | -33.57898 | 151.55337 | 17361 ft | 362 kts | 20° |
| 2026-04-24 07:15 | -33.55492 | 151.56249 | 17823 ft | 364 kts | 20° |
| 2026-04-24 07:15 | -33.53066 | 151.57168 | 18290 ft | 367 kts | 20° |
| 2026-04-24 07:16 | -33.50628 | 151.58091 | 18750 ft | 369 kts | 20° |
| 2026-04-24 07:16 | -33.48170 | 151.59021 | 19145 ft | 372 kts | 20° |
| 2026-04-24 07:16 | -33.45690 | 151.59958 | 19527 ft | 375 kts | 20° |
| 2026-04-24 07:16 | -33.43190 | 151.60903 | 19916 ft | 378 kts | 20° |
| 2026-04-24 07:17 | -33.40674 | 151.61853 | 20297 ft | 381 kts | 20° |
| 2026-04-24 07:17 | -33.38166 | 151.62800 | 20685 ft | 384 kts | 20° |
| 2026-04-24 07:17 | -33.35611 | 151.63763 | 21082 ft | 387 kts | 20° |
| 2026-04-24 07:17 | -33.33037 | 151.64733 | 21486 ft | 390 kts | 20° |
| 2026-04-24 07:18 | -33.30438 | 151.65712 | 21912 ft | 393 kts | 20° |
| 2026-04-24 07:18 | -33.27827 | 151.66695 | 22319 ft | 396 kts | 21° |
| 2026-04-24 07:18 | -33.25188 | 151.67688 | 22741 ft | 399 kts | 21° |
| 2026-04-24 07:18 | -33.22539 | 151.68684 | 23222 ft | 399 kts | 21° |
| 2026-04-24 07:19 | -33.19925 | 151.69662 | 24111 ft | 389 kts | 21° |
| 2026-04-24 07:19 | -33.17375 | 151.70614 | 24915 ft | 378 kts | 21° |
| 2026-04-24 07:19 | -33.14942 | 151.71522 | 25721 ft | 366 kts | 21° |
| 2026-04-24 07:19 | -33.12554 | 151.72413 | 26583 ft | 354 kts | 21° |
| 2026-04-24 07:20 | -33.10237 | 151.73279 | 27530 ft | 342 kts | 21° |
| 2026-04-24 07:20 | -33.07997 | 151.74117 | 28386 ft | 334 kts | 21° |
| 2026-04-24 07:20 | -33.05794 | 151.74944 | 28988 ft | 332 kts | 21° |
| 2026-04-24 07:20 | -33.03587 | 151.75775 | 29433 ft | 334 kts | 21° |
| 2026-04-24 07:21 | -33.01358 | 151.76615 | 29834 ft | 337 kts | 21° |
| 2026-04-24 07:21 | -32.99112 | 151.77460 | 30234 ft | 340 kts | 21° |
| 2026-04-24 07:21 | -32.96877 | 151.78298 | 30608 ft | 343 kts | 21° |
| 2026-04-24 07:21 | -32.94591 | 151.79153 | 30912 ft | 346 kts | 21° |
| 2026-04-24 07:22 | -32.92282 | 151.80016 | 31196 ft | 350 kts | 21° |
| 2026-04-24 07:22 | -32.89947 | 151.80887 | 31468 ft | 353 kts | 21° |
| 2026-04-24 07:22 | -32.87593 | 151.81765 | 31774 ft | 356 kts | 21° |
| 2026-04-24 07:22 | -32.85222 | 151.82647 | 32092 ft | 358 kts | 21° |
| 2026-04-24 07:23 | -32.82833 | 151.83536 | 32378 ft | 361 kts | 21° |
| 2026-04-24 07:23 | -32.80421 | 151.84434 | 32632 ft | 365 kts | 21° |
| 2026-04-24 07:23 | -32.78021 | 151.85327 | 32887 ft | 368 kts | 21° |
| 2026-04-24 07:23 | -32.75568 | 151.86239 | 33153 ft | 371 kts | 21° |
| 2026-04-24 07:24 | -32.73098 | 151.87156 | 33408 ft | 374 kts | 21° |
| 2026-04-24 07:24 | -32.70602 | 151.88083 | 33642 ft | 377 kts | 21° |
| 2026-04-24 07:24 | -32.68094 | 151.89014 | 33898 ft | 380 kts | 21° |
| 2026-04-24 07:24 | -32.65561 | 151.89953 | 34139 ft | 383 kts | 21° |
| 2026-04-24 07:25 | -32.63014 | 151.90897 | 34379 ft | 385 kts | 21° |
| 2026-04-24 07:25 | -32.60444 | 151.91849 | 34586 ft | 388 kts | 21° |
| 2026-04-24 07:25 | -32.57860 | 151.92805 | 34795 ft | 390 kts | 21° |
| 2026-04-24 07:25 | -32.55263 | 151.93765 | 35043 ft | 391 kts | 21° |
| 2026-04-24 07:26 | -32.52698 | 151.94713 | 35313 ft | 392 kts | 21° |
| 2026-04-24 07:26 | -32.50087 | 151.95677 | 35494 ft | 394 kts | 21° |
| 2026-04-24 07:26 | -32.47459 | 151.96648 | 35671 ft | 397 kts | 21° |
| 2026-04-24 07:26 | -32.44815 | 151.97624 | 35848 ft | 399 kts | 21° |
| 2026-04-24 07:27 | -32.42154 | 151.98606 | 36035 ft | 401 kts | 21° |
| 2026-04-24 07:27 | -32.39485 | 151.99590 | 36214 ft | 404 kts | 21° |
| 2026-04-24 07:27 | -32.36795 | 152.00581 | 36381 ft | 406 kts | 21° |
| 2026-04-24 07:27 | -32.34090 | 152.01576 | 36550 ft | 408 kts | 20° |
| 2026-04-24 07:28 | -32.31407 | 152.02563 | 36729 ft | 410 kts | 20° |
| 2026-04-24 07:28 | -32.28681 | 152.03565 | 36887 ft | 412 kts | 20° |
| 2026-04-24 07:28 | -32.25935 | 152.04575 | 37046 ft | 414 kts | 20° |
| 2026-04-24 07:28 | -32.23174 | 152.05588 | 37203 ft | 416 kts | 20° |
| 2026-04-24 07:29 | -32.20399 | 152.06607 | 37394 ft | 418 kts | 20° |
| 2026-04-24 07:29 | -32.17614 | 152.07628 | 37532 ft | 420 kts | 20° |
| 2026-04-24 07:29 | -32.14815 | 152.08654 | 37687 ft | 422 kts | 20° |
| 2026-04-24 07:29 | -32.12007 | 152.09683 | 37830 ft | 424 kts | 20° |
| 2026-04-24 07:30 | -32.09215 | 152.10705 | 37967 ft | 426 kts | 20° |
| 2026-04-24 07:30 | -32.06343 | 152.11755 | 38130 ft | 428 kts | 20° |
| 2026-04-24 07:30 | -32.03530 | 152.12784 | 38258 ft | 430 kts | 20° |
| 2026-04-24 07:30 | -32.00664 | 152.13831 | 38386 ft | 432 kts | 19° |
| 2026-04-24 07:31 | -31.97792 | 152.14879 | 38551 ft | 433 kts | 19° |
| 2026-04-24 07:31 | -31.94907 | 152.15932 | 38682 ft | 435 kts | 19° |
| 2026-04-24 07:31 | -31.92012 | 152.16987 | 38829 ft | 437 kts | 19° |
| 2026-04-24 07:31 | -31.89104 | 152.18046 | 38951 ft | 439 kts | 19° |
| 2026-04-24 07:32 | -31.86220 | 152.19096 | 39066 ft | 440 kts | 19° |
| 2026-04-24 07:32 | -31.83286 | 152.20164 | 39180 ft | 442 kts | 19° |
| 2026-04-24 07:32 | -31.80344 | 152.21233 | 39289 ft | 443 kts | 19° |
| 2026-04-24 07:32 | -31.77393 | 152.22306 | 39391 ft | 444 kts | 19° |
| 2026-04-24 07:33 | -31.71445 | 152.24467 | 39456 ft | 452 kts | 18° |
| 2026-04-24 07:33 | -31.65375 | 152.26666 | 39459 ft | 461 kts | 18° |
| 2026-04-24 07:34 | -31.59177 | 152.28911 | 39452 ft | 470 kts | 18° |
| 2026-04-24 07:34 | -31.52972 | 152.31154 | 39455 ft | 470 kts | 18° |
| 2026-04-24 07:35 | -31.46731 | 152.33407 | 39456 ft | 469 kts | 18° |
| 2026-04-24 07:35 | -31.40487 | 152.35658 | 39456 ft | 470 kts | 18° |
| 2026-04-24 07:36 | -31.34240 | 152.37907 | 39453 ft | 470 kts | 18° |
| 2026-04-24 07:36 | -31.28039 | 152.40137 | 39454 ft | 469 kts | 17° |
| 2026-04-24 07:37 | -31.21798 | 152.42378 | 39451 ft | 469 kts | 17° |
| 2026-04-24 07:37 | -31.15562 | 152.44613 | 39453 ft | 469 kts | 18° |
| 2026-04-24 07:38 | -31.09318 | 152.46849 | 39453 ft | 469 kts | 17° |
| 2026-04-24 07:38 | -31.03075 | 152.49083 | 39452 ft | 469 kts | 17° |
| 2026-04-24 07:39 | -30.96878 | 152.51295 | 39449 ft | 469 kts | 17° |
| 2026-04-24 07:39 | -30.90640 | 152.53519 | 39456 ft | 470 kts | 17° |
| 2026-04-24 07:40 | -30.84399 | 152.55741 | 39446 ft | 467 kts | 17° |
| 2026-04-24 07:40 | -30.78191 | 152.57958 | 39449 ft | 466 kts | 17° |
| 2026-04-24 07:41 | -30.72040 | 152.60188 | 39448 ft | 467 kts | 17° |
| 2026-04-24 07:41 | -30.65844 | 152.62442 | 39449 ft | 466 kts | 17° |
| 2026-04-24 07:42 | -30.59642 | 152.64692 | 39447 ft | 468 kts | 17° |
| 2026-04-24 07:42 | -30.53379 | 152.66959 | 39442 ft | 473 kts | 17° |
| 2026-04-24 07:43 | -30.47092 | 152.69230 | 39446 ft | 474 kts | 17° |
| 2026-04-24 07:43 | -30.40840 | 152.71486 | 39444 ft | 474 kts | 17° |
| 2026-04-24 07:44 | -30.34545 | 152.73754 | 39439 ft | 474 kts | 17° |
| 2026-04-24 07:44 | -30.28248 | 152.76020 | 39441 ft | 474 kts | 17° |
| 2026-04-24 07:45 | -30.21955 | 152.78282 | 39435 ft | 474 kts | 17° |
| 2026-04-24 07:45 | -30.15698 | 152.80528 | 39430 ft | 474 kts | 17° |
| 2026-04-24 07:46 | -30.09394 | 152.82787 | 39433 ft | 474 kts | 17° |
| 2026-04-24 07:46 | -30.03095 | 152.85040 | 39422 ft | 474 kts | 17° |
| 2026-04-24 07:47 | -29.96801 | 152.87291 | 39419 ft | 473 kts | 17° |
| 2026-04-24 07:47 | -29.90551 | 152.89523 | 39417 ft | 473 kts | 17° |
| 2026-04-24 07:48 | -29.84273 | 152.91761 | 39411 ft | 471 kts | 17° |
| 2026-04-24 07:48 | -29.78011 | 152.93991 | 39406 ft | 471 kts | 17° |
| 2026-04-24 07:49 | -29.71750 | 152.96217 | 39406 ft | 471 kts | 17° |
| 2026-04-24 07:49 | -29.65533 | 152.98425 | 39399 ft | 470 kts | 16° |
| 2026-04-24 07:50 | -29.59311 | 153.00632 | 39406 ft | 467 kts | 16° |
| 2026-04-24 07:50 | -29.53109 | 153.02829 | 39399 ft | 466 kts | 16° |
| 2026-04-24 07:51 | -29.46911 | 153.05022 | 39396 ft | 466 kts | 16° |
| 2026-04-24 07:51 | -29.40747 | 153.07200 | 39396 ft | 466 kts | 16° |
| 2026-04-24 07:52 | -29.34554 | 153.09385 | 39396 ft | 465 kts | 16° |
| 2026-04-24 07:52 | -29.28371 | 153.11565 | 39390 ft | 465 kts | 15° |
| 2026-04-24 07:53 | -29.22177 | 153.13744 | 39390 ft | 466 kts | 16° |
| 2026-04-24 07:53 | -29.15988 | 153.15920 | 39381 ft | 464 kts | 15° |
| 2026-04-24 07:54 | -29.09824 | 153.18086 | 39380 ft | 463 kts | 15° |
| 2026-04-24 07:54 | -29.03704 | 153.20233 | 39380 ft | 463 kts | 15° |
| 2026-04-24 07:55 | -28.97544 | 153.22391 | 39378 ft | 463 kts | 15° |
| 2026-04-24 07:55 | -28.91382 | 153.24547 | 39376 ft | 463 kts | 15° |
| 2026-04-24 07:56 | -28.85215 | 153.26703 | 39373 ft | 464 kts | 15° |
| 2026-04-24 07:56 | -28.79086 | 153.28842 | 39368 ft | 464 kts | 15° |
| 2026-04-24 07:57 | -28.72917 | 153.30993 | 39369 ft | 464 kts | 15° |
| 2026-04-24 07:57 | -28.66738 | 153.33144 | 39373 ft | 465 kts | 15° |
| 2026-04-24 07:58 | -28.60543 | 153.35298 | 39364 ft | 466 kts | 15° |
| 2026-04-24 07:58 | -28.54345 | 153.37452 | 39363 ft | 466 kts | 15° |
| 2026-04-24 07:59 | -28.48184 | 153.39589 | 39357 ft | 466 kts | 15° |
| 2026-04-24 07:59 | -28.41977 | 153.41737 | 39327 ft | 469 kts | 14° |
| 2026-04-24 08:00 | -28.38847 | 153.42819 | 38887 ft | 471 kts | 14° |
| 2026-04-24 08:00 | -28.35701 | 153.43908 | 38071 ft | 475 kts | 15° |
| 2026-04-24 08:00 | -28.32536 | 153.45005 | 37534 ft | 473 kts | 15° |
| 2026-04-24 08:00 | -28.29420 | 153.46085 | 37280 ft | 465 kts | 15° |
| 2026-04-24 08:01 | -28.26347 | 153.47148 | 37023 ft | 460 kts | 14° |
| 2026-04-24 08:01 | -28.23282 | 153.48207 | 36765 ft | 460 kts | 14° |
| 2026-04-24 08:01 | -28.20210 | 153.49266 | 36511 ft | 462 kts | 14° |
| 2026-04-24 08:01 | -28.17132 | 153.50000 | 36288 ft | 457 kts | 359° |
| 2026-04-24 08:02 | -28.14001 | 153.49726 | 36049 ft | 448 kts | 344° |
| 2026-04-24 08:02 | -28.11023 | 153.48742 | 35800 ft | 445 kts | 336° |
| 2026-04-24 08:02 | -28.08146 | 153.47442 | 35559 ft | 445 kts | 333° |
| 2026-04-24 08:02 | -28.05317 | 153.46044 | 35319 ft | 445 kts | 333° |
| 2026-04-24 08:03 | -28.02471 | 153.44647 | 35081 ft | 445 kts | 334° |
| 2026-04-24 08:03 | -27.99613 | 153.43305 | 34836 ft | 445 kts | 335° |
| 2026-04-24 08:03 | -27.96730 | 153.42012 | 34604 ft | 447 kts | 336° |
| 2026-04-24 08:03 | -27.93854 | 153.40774 | 34381 ft | 448 kts | 337° |
| 2026-04-24 08:04 | -27.90946 | 153.39554 | 34111 ft | 448 kts | 337° |
| 2026-04-24 08:04 | -27.88016 | 153.38340 | 33829 ft | 447 kts | 338° |
| 2026-04-24 08:04 | -27.85101 | 153.37138 | 33559 ft | 445 kts | 337° |
| 2026-04-24 08:04 | -27.82198 | 153.35940 | 33295 ft | 444 kts | 339° |
| 2026-04-24 08:05 | -27.79301 | 153.34745 | 33034 ft | 443 kts | 338° |
| 2026-04-24 08:05 | -27.76414 | 153.33539 | 32767 ft | 441 kts | 336° |
| 2026-04-24 08:05 | -27.73583 | 153.32246 | 32510 ft | 439 kts | 336° |
| 2026-04-24 08:05 | -27.70786 | 153.30883 | 32252 ft | 437 kts | 335° |
| 2026-04-24 08:06 | -27.68007 | 153.29489 | 31997 ft | 436 kts | 335° |
| 2026-04-24 08:06 | -27.65248 | 153.28097 | 31738 ft | 434 kts | 335° |
| 2026-04-24 08:06 | -27.62535 | 153.26731 | 31497 ft | 432 kts | 336° |
| 2026-04-24 08:06 | -27.59784 | 153.25375 | 31199 ft | 434 kts | 339° |
| 2026-04-24 08:07 | -27.56900 | 153.24316 | 30481 ft | 438 kts | 348° |
| 2026-04-24 08:07 | -27.53873 | 153.23817 | 29536 ft | 441 kts | 359° |
| 2026-04-24 08:07 | -27.50822 | 153.23989 | 28834 ft | 437 kts | 11° |
| 2026-04-24 08:07 | -27.47920 | 153.24830 | 28480 ft | 426 kts | 22° |
| 2026-04-24 08:08 | -27.45320 | 153.26295 | 28226 ft | 410 kts | 38° |
| 2026-04-24 08:08 | -27.43347 | 153.28502 | 28013 ft | 394 kts | 56° |
| 2026-04-24 08:08 | -27.41862 | 153.31029 | 27834 ft | 382 kts | 61° |
| 2026-04-24 08:09 | -27.39295 | 153.36052 | 27128 ft | 364 kts | 63° |
| 2026-04-24 08:09 | -27.38031 | 153.38505 | 26590 ft | 363 kts | 54° |
| 2026-04-24 08:09 | -27.36294 | 153.40579 | 26075 ft | 366 kts | 43° |
| 2026-04-24 08:09 | -27.34348 | 153.42436 | 25558 ft | 367 kts | 41° |
| 2026-04-24 08:10 | -27.32381 | 153.44259 | 25057 ft | 366 kts | 41° |
| 2026-04-24 08:10 | -27.30398 | 153.46049 | 24560 ft | 364 kts | 41° |
| 2026-04-24 08:10 | -27.28410 | 153.47802 | 24075 ft | 362 kts | 41° |
| 2026-04-24 08:10 | -27.26426 | 153.49529 | 23531 ft | 360 kts | 41° |
| 2026-04-24 08:11 | -27.24458 | 153.51251 | 22960 ft | 357 kts | 40° |
| 2026-04-24 08:11 | -27.22496 | 153.52956 | 22399 ft | 355 kts | 41° |
| 2026-04-24 08:11 | -27.20574 | 153.54619 | 21837 ft | 352 kts | 42° |
| 2026-04-24 08:11 | -27.18715 | 153.56374 | 21284 ft | 350 kts | 38° |
| 2026-04-24 08:12 | -27.16515 | 153.57539 | 20713 ft | 353 kts | 16° |
| 2026-04-24 08:12 | -27.14067 | 153.57717 | 20189 ft | 355 kts | 353° |
| 2026-04-24 08:12 | -27.11727 | 153.56884 | 19653 ft | 355 kts | 330° |
| 2026-04-24 08:12 | -27.09822 | 153.55161 | 19134 ft | 352 kts | 308° |
| 2026-04-24 08:13 | -27.08624 | 153.52808 | 18613 ft | 345 kts | 285° |
| 2026-04-24 08:13 | -27.08301 | 153.50197 | 18034 ft | 335 kts | 262° |
| 2026-04-24 08:13 | -27.08872 | 153.47727 | 17455 ft | 323 kts | 237° |
| 2026-04-24 08:13 | -27.10217 | 153.45784 | 16889 ft | 311 kts | 215° |
| 2026-04-24 08:14 | -27.12079 | 153.44665 | 16344 ft | 302 kts | 192° |
| 2026-04-24 08:14 | -27.14131 | 153.44296 | 15804 ft | 298 kts | 182° |
| 2026-04-24 08:14 | -27.16165 | 153.44122 | 15276 ft | 296 kts | 181° |
| 2026-04-24 08:14 | -27.18215 | 153.43961 | 14741 ft | 295 kts | 181° |
| 2026-04-24 08:15 | -27.20260 | 153.43793 | 14229 ft | 293 kts | 181° |
| 2026-04-24 08:15 | -27.22285 | 153.43625 | 13667 ft | 290 kts | 181° |
| 2026-04-24 08:15 | -27.24299 | 153.43457 | 12856 ft | 294 kts | 181° |
| 2026-04-24 08:15 | -27.26374 | 153.43282 | 11810 ft | 303 kts | 181° |
| 2026-04-24 08:16 | -27.28513 | 153.43117 | 10689 ft | 314 kts | 181° |
| 2026-04-24 08:16 | -27.30725 | 153.42946 | 9453 ft | 323 kts | 181° |
| 2026-04-24 08:16 | -27.32997 | 153.42771 | 8072 ft | 332 kts | 181° |
| 2026-04-24 08:16 | -27.35291 | 153.42593 | 6948 ft | 335 kts | 181° |
| 2026-04-24 08:17 | -27.37572 | 153.42485 | 6297 ft | 317 kts | 173° |
| 2026-04-24 08:17 | -27.39574 | 153.43161 | 6027 ft | 288 kts | 149° |
| 2026-04-24 08:17 | -27.40945 | 153.44624 | 5973 ft | 261 kts | 123° |
| 2026-04-24 08:17 | -27.41633 | 153.46434 | 5973 ft | 250 kts | 105° |
| 2026-04-24 08:18 | -27.41564 | 153.48396 | 5972 ft | 258 kts | 77° |
| 2026-04-24 08:18 | -27.40619 | 153.50147 | 5967 ft | 271 kts | 50° |
| 2026-04-24 08:18 | -27.39045 | 153.51380 | 5964 ft | 280 kts | 33° |
| 2026-04-24 08:18 | -27.37309 | 153.52380 | 5957 ft | 281 kts | 31° |
| 2026-04-24 08:19 | -27.35551 | 153.53353 | 5961 ft | 282 kts | 31° |
| 2026-04-24 08:19 | -27.33783 | 153.54245 | 5794 ft | 277 kts | 19° |
| 2026-04-24 08:19 | -27.31919 | 153.54411 | 5558 ft | 270 kts | 356° |
| 2026-04-24 08:19 | -27.30169 | 153.53760 | 5308 ft | 263 kts | 329° |
| 2026-04-24 08:20 | -27.28890 | 153.52385 | 5104 ft | 250 kts | 302° |
| 2026-04-24 08:20 | -27.28006 | 153.50740 | 4868 ft | 243 kts | 296° |
| 2026-04-24 08:20 | -27.27215 | 153.49069 | 4737 ft | 242 kts | 295° |
| 2026-04-24 08:20 | -27.26432 | 153.47391 | 4610 ft | 243 kts | 295° |
| 2026-04-24 08:21 | -27.25644 | 153.45715 | 4486 ft | 243 kts | 295° |
| 2026-04-24 08:21 | -27.24854 | 153.44045 | 4353 ft | 242 kts | 295° |
| 2026-04-24 08:21 | -27.24061 | 153.42377 | 4236 ft | 241 kts | 295° |
| 2026-04-24 08:21 | -27.23271 | 153.40718 | 4112 ft | 240 kts | 295° |
| 2026-04-24 08:22 | -27.22496 | 153.39096 | 4006 ft | 236 kts | 295° |
| 2026-04-24 08:22 | -27.21746 | 153.37536 | 3990 ft | 219 kts | 294° |
| 2026-04-24 08:22 | -27.21030 | 153.36038 | 3978 ft | 217 kts | 294° |
| 2026-04-24 08:22 | -27.20316 | 153.34540 | 3974 ft | 218 kts | 294° |
| 2026-04-24 08:23 | -27.19600 | 153.33038 | 3974 ft | 218 kts | 295° |
| 2026-04-24 08:23 | -27.18884 | 153.31539 | 3974 ft | 218 kts | 295° |
| 2026-04-24 08:23 | -27.18165 | 153.30038 | 3975 ft | 218 kts | 295° |
| 2026-04-24 08:23 | -27.17445 | 153.28533 | 3975 ft | 219 kts | 294° |
| 2026-04-24 08:24 | -27.16938 | 153.26952 | 3974 ft | 212 kts | 270° |
| 2026-04-24 08:24 | -27.17200 | 153.25539 | 3962 ft | 168 kts | 224° |
| 2026-04-24 08:24 | -27.17969 | 153.24735 | 3995 ft | 141 kts | 205° |
| 2026-04-24 08:24 | -27.18792 | 153.24178 | 3991 ft | 138 kts | 199° |
| 2026-04-24 08:25 | -27.19652 | 153.23675 | 3951 ft | 140 kts | 198° |
| 2026-04-24 08:25 | -27.20503 | 153.23184 | 3835 ft | 137 kts | 198° |
| 2026-04-24 08:25 | -27.21356 | 153.22695 | 3607 ft | 138 kts | 198° |
| 2026-04-24 08:25 | -27.22215 | 153.22202 | 3408 ft | 139 kts | 198° |
| 2026-04-24 08:26 | -27.23074 | 153.21709 | 3201 ft | 139 kts | 198° |
| 2026-04-24 08:26 | -27.23930 | 153.21217 | 3017 ft | 138 kts | 199° |
| 2026-04-24 08:26 | -27.24768 | 153.20736 | 2831 ft | 136 kts | 199° |
| 2026-04-24 08:26 | -27.25612 | 153.20252 | 2657 ft | 136 kts | 198° |
| 2026-04-24 08:27 | -27.26455 | 153.19768 | 2471 ft | 136 kts | 198° |
| 2026-04-24 08:27 | -27.27301 | 153.19283 | 2296 ft | 136 kts | 198° |
| 2026-04-24 08:27 | -27.28142 | 153.18800 | 2110 ft | 135 kts | 197° |
| 2026-04-24 08:27 | -27.28954 | 153.18333 | 1925 ft | 129 kts | 198° |
| 2026-04-24 08:28 | -27.29745 | 153.17879 | 1759 ft | 127 kts | 198° |
| 2026-04-24 08:28 | -27.30530 | 153.17429 | 1598 ft | 127 kts | 199° |
| 2026-04-24 08:28 | -27.31317 | 153.16977 | 1435 ft | 127 kts | 198° |
| 2026-04-24 08:28 | -27.32101 | 153.16526 | 1258 ft | 126 kts | 198° |
| 2026-04-24 08:29 | -27.32884 | 153.16077 | 1095 ft | 126 kts | 198° |
| 2026-04-24 08:29 | -27.33656 | 153.15634 | 925 ft | 126 kts | 199° |
| 2026-04-24 08:29 | -27.34424 | 153.15185 | 770 ft | 125 kts | 199° |
| 2026-04-24 08:29 | -27.35197 | 153.14718 | 573 ft | 128 kts | 202° |
| 2026-04-24 08:30 | -27.35949 | 153.14262 | 408 ft | 121 kts | 199° |
| 2026-04-24 08:30 | -27.36716 | 153.13850 | 251 ft | 123 kts | 202° |
| 2026-04-24 08:30 | -27.37471 | 153.13422 | 105 ft | 120 kts | 199° |
| 2026-04-24 08:30 | -27.38339 | 153.12966 | 609 ft | 148 kts | 200° |
| 2026-04-24 08:31 | -27.39328 | 153.12487 | 1387 ft | 163 kts | 197° |
| 2026-04-24 08:31 | -27.40063 | 153.12179 | 1877 ft | 177 kts | 195° |
| 2026-04-24 08:31 | -27.41251 | 153.11615 | 2796 ft | 190 kts | 194° |
| 2026-04-24 08:31 | -27.43068 | 153.11558 | 3704 ft | 218 kts | 166° |
| 2026-04-24 08:32 | -27.44593 | 153.11985 | 3934 ft | 220 kts | 163° |
| 2026-04-24 08:32 | -27.46042 | 153.12246 | 3957 ft | 204 kts | 172° |
| 2026-04-24 08:32 | -27.47419 | 153.12204 | 3963 ft | 198 kts | 192° |
| 2026-04-24 08:32 | -27.48259 | 153.11739 | 4102 ft | 201 kts | 204° |
| 2026-04-24 08:33 | -27.49516 | 153.11187 | 4337 ft | 193 kts | 178° |
| 2026-04-24 08:33 | -27.50801 | 153.11470 | 4603 ft | 189 kts | 155° |
| 2026-04-24 08:33 | -27.51996 | 153.12090 | 4862 ft | 190 kts | 151° |
| 2026-04-24 08:33 | -27.53180 | 153.12757 | 4968 ft | 191 kts | 151° |
| 2026-04-24 08:34 | -27.54323 | 153.13516 | 4971 ft | 191 kts | 135° |
| 2026-04-24 08:34 | -27.54950 | 153.15322 | 4973 ft | 198 kts | 89° |
| 2026-04-24 08:34 | -27.54474 | 153.16813 | 4984 ft | 209 kts | 66° |
| 2026-04-24 08:34 | -27.53653 | 153.18191 | 4975 ft | 213 kts | 62° |
| 2026-04-24 08:35 | -27.53065 | 153.19101 | 4973 ft | 214 kts | 61° |
| 2026-04-24 08:35 | -27.52197 | 153.20439 | 4971 ft | 214 kts | 61° |
| 2026-04-24 08:35 | -27.51020 | 153.22253 | 4974 ft | 214 kts | 60° |
| 2026-04-24 08:35 | -27.50350 | 153.23084 | 4966 ft | 220 kts | 45° |
| 2026-04-24 08:36 | -27.49013 | 153.23984 | 4970 ft | 227 kts | 33° |
| 2026-04-24 08:36 | -27.47572 | 153.24739 | 4980 ft | 229 kts | 31° |
| 2026-04-24 08:36 | -27.46122 | 153.25473 | 4973 ft | 228 kts | 31° |
| 2026-04-24 08:36 | -27.44675 | 153.26200 | 4971 ft | 228 kts | 31° |
| 2026-04-24 08:37 | -27.43223 | 153.26931 | 4967 ft | 229 kts | 31° |
| 2026-04-24 08:37 | -27.41771 | 153.27662 | 4993 ft | 228 kts | 31° |
| 2026-04-24 08:37 | -27.39853 | 153.28625 | 4994 ft | 228 kts | 31° |
| 2026-04-24 08:37 | -27.38891 | 153.29108 | 4996 ft | 228 kts | 31° |
| 2026-04-24 08:38 | -27.37428 | 153.29859 | 4994 ft | 229 kts | 31° |
| 2026-04-24 08:38 | -27.35997 | 153.30601 | 4994 ft | 230 kts | 31° |
| 2026-04-24 08:38 | -27.34543 | 153.31356 | 4993 ft | 230 kts | 31° |
| 2026-04-24 08:38 | -27.33091 | 153.32111 | 4988 ft | 230 kts | 31° |
| 2026-04-24 08:39 | -27.31635 | 153.32867 | 4991 ft | 230 kts | 31° |
| 2026-04-24 08:39 | -27.30180 | 153.33618 | 4982 ft | 230 kts | 31° |
| 2026-04-24 08:39 | -27.28729 | 153.34376 | 4983 ft | 230 kts | 31° |
| 2026-04-24 08:39 | -27.27279 | 153.35128 | 4971 ft | 230 kts | 31° |
| 2026-04-24 08:40 | -27.25827 | 153.35884 | 4691 ft | 230 kts | 31° |
| 2026-04-24 08:40 | -27.24378 | 153.36637 | 4388 ft | 229 kts | 31° |
| 2026-04-24 08:40 | -27.22929 | 153.37392 | 4092 ft | 229 kts | 31° |
| 2026-04-24 08:40 | -27.21493 | 153.38147 | 3984 ft | 228 kts | 31° |
| 2026-04-24 08:41 | -27.20055 | 153.38896 | 3971 ft | 228 kts | 31° |
| 2026-04-24 08:41 | -27.18630 | 153.39631 | 3967 ft | 229 kts | 31° |
| 2026-04-24 08:41 | -27.17183 | 153.40377 | 3962 ft | 229 kts | 31° |
| 2026-04-24 08:41 | -27.15743 | 153.41133 | 3964 ft | 229 kts | 31° |
| 2026-04-24 08:42 | -27.14298 | 153.41889 | 3960 ft | 229 kts | 28° |
| 2026-04-24 08:42 | -27.12719 | 153.42213 | 3948 ft | 237 kts | 356° |
| 2026-04-24 08:42 | -27.11183 | 153.41557 | 3953 ft | 240 kts | 321° |
| 2026-04-24 08:42 | -27.10163 | 153.40116 | 3956 ft | 237 kts | 291° |
| 2026-04-24 08:43 | -27.09608 | 153.38383 | 3956 ft | 236 kts | 282° |
| 2026-04-24 08:43 | -27.09153 | 153.36607 | 3961 ft | 237 kts | 281° |
| 2026-04-24 08:43 | -27.08711 | 153.34824 | 3960 ft | 237 kts | 281° |
| 2026-04-24 08:43 | -27.08513 | 153.33030 | 3958 ft | 227 kts | 256° |
| 2026-04-24 08:44 | -27.09006 | 153.31431 | 3967 ft | 217 kts | 235° |
| 2026-04-24 08:44 | -27.09793 | 153.30006 | 3965 ft | 213 kts | 225° |
| 2026-04-24 08:44 | -27.10832 | 153.28862 | 3966 ft | 207 kts | 210° |
| 2026-04-24 08:44 | -27.12045 | 153.28019 | 3963 ft | 204 kts | 202° |
| 2026-04-24 08:45 | -27.13303 | 153.27286 | 3975 ft | 204 kts | 200° |
| 2026-04-24 08:45 | -27.14565 | 153.26570 | 3978 ft | 203 kts | 200° |
| 2026-04-24 08:45 | -27.15829 | 153.25856 | 3974 ft | 203 kts | 200° |
| 2026-04-24 08:45 | -27.17063 | 153.25154 | 3995 ft | 190 kts | 200° |
| 2026-04-24 08:46 | -27.18205 | 153.24500 | 3985 ft | 182 kts | 200° |
| 2026-04-24 08:46 | -27.19317 | 153.23861 | 3974 ft | 173 kts | 199° |
| 2026-04-24 08:46 | -27.20335 | 153.23275 | 3823 ft | 161 kts | 199° |
| 2026-04-24 08:46 | -27.21304 | 153.22722 | 3613 ft | 153 kts | 199° |
| 2026-04-24 08:47 | -27.22227 | 153.22193 | 3398 ft | 145 kts | 199° |
| 2026-04-24 08:47 | -27.23096 | 153.21693 | 3179 ft | 137 kts | 198° |
| 2026-04-24 08:47 | -27.23943 | 153.21209 | 3008 ft | 137 kts | 198° |
| 2026-04-24 08:47 | -27.24793 | 153.20723 | 2825 ft | 136 kts | 199° |
| 2026-04-24 08:48 | -27.25629 | 153.20242 | 2652 ft | 133 kts | 198° |
| 2026-04-24 08:48 | -27.26415 | 153.19789 | 2508 ft | 125 kts | 197° |
| 2026-04-24 08:48 | -27.27187 | 153.19347 | 2335 ft | 125 kts | 197° |
| 2026-04-24 08:48 | -27.27966 | 153.18902 | 2157 ft | 126 kts | 197° |
| 2026-04-24 08:49 | -27.28750 | 153.18451 | 1980 ft | 127 kts | 196° |
| 2026-04-24 08:49 | -27.29524 | 153.18007 | 1813 ft | 127 kts | 198° |
| 2026-04-24 08:49 | -27.30303 | 153.17559 | 1651 ft | 125 kts | 198° |
| 2026-04-24 08:49 | -27.31075 | 153.17115 | 1484 ft | 125 kts | 198° |
| 2026-04-24 08:50 | -27.31847 | 153.16672 | 1317 ft | 125 kts | 198° |
| 2026-04-24 08:50 | -27.32618 | 153.16230 | 1136 ft | 124 kts | 197° |
| 2026-04-24 08:50 | -27.33388 | 153.15788 | 978 ft | 124 kts | 199° |
| 2026-04-24 08:50 | -27.34151 | 153.15348 | 834 ft | 122 kts | 202° |
| 2026-04-24 08:51 | -27.34906 | 153.14907 | 646 ft | 123 kts | 200° |
| 2026-04-24 08:51 | -27.35685 | 153.14471 | 386 ft | 123 kts | 203° |
| 2026-04-24 08:51 | -27.36412 | 153.14049 | 290 ft | 115 kts | 201° |
| 2026-04-24 08:51 | -27.37129 | 153.13624 | 171 ft | 118 kts | 205° |
| 2026-04-24 08:52 | -27.37850 | 153.13204 | 37 ft | 111 kts | 205° |
| 2026-04-24 08:52 | -27.38456 | 153.12860 | 22 ft | 78 kts | 205° |
| 2026-04-24 08:52 | -27.38776 | 153.12678 | 22 ft | 31 kts | 213° |
| 2026-04-24 08:52 | -27.38937 | 153.12550 | 20 ft | 25 kts | 221° |
| 2026-04-24 08:53 | -27.39031 | 153.12413 | 22 ft | 20 kts | 238° |
| 2026-04-24 08:53 | -27.39091 | 153.12307 | 21 ft | 0 kts | 236° |
| 2026-04-24 08:55 | -27.39091 | 153.12306 | 21 ft | 2 kts | 236° |
| 2026-04-24 08:55 | -27.39126 | 153.12246 | 21 ft | 15 kts | 240° |
| 2026-04-24 08:55 | -27.39113 | 153.12138 | 21 ft | 12 kts | 319° |
| 2026-04-24 08:56 | -27.39063 | 153.12130 | 21 ft | 7 kts | 346° |
| 2026-04-24 08:56 | -27.39025 | 153.12070 | 21 ft | 16 kts | 297° |
| 2026-04-24 08:56 | -27.38942 | 153.11998 | 21 ft | 0 kts | 5° |
| 2026-04-24 08:56 | -27.38940 | 153.12001 | 21 ft | 0 kts | 36° |
| 2026-04-24 08:57 | -27.38937 | 153.12006 | 21 ft | 3 kts | 53° |
| 2026-04-24 08:57 | -27.38910 | 153.12047 | 23 ft | 10 kts | 52° |
| 2026-04-24 08:57 | -27.38867 | 153.12132 | 23 ft | 14 kts | 56° |
| 2026-04-24 08:57 | -27.38796 | 153.12177 | 21 ft | 7 kts | 351° |
| 2026-04-24 08:58 | -27.38760 | 153.12142 | 22 ft | 10 kts | 315° |
| 2026-04-24 08:58 | -27.38722 | 153.12079 | 21 ft | 8 kts | 290° |
| 2026-04-24 08:58 | -27.38685 | 153.12050 | 23 ft | 6 kts | 322° |
| 2026-04-24 08:58 | -27.38684 | 153.12022 | 21 ft | 6 kts | 266° |
| 2026-04-24 08:59 | -27.38668 | 153.11985 | 21 ft | 0 kts | 306° |